Time;durP1;ratioP1;P1;durP2;ratioP2;P2;SDS_P1;SDS_P2;PMS_P1;PMS_P2;Temp;Humidity;BMP_temperature;BMP_pressure;BME280_temperature;BME280_humidity;BME280_pressure;Samples;Min_cycle;Max_cycle;Signal;HPM_P1;HPM_P2
2022/12/15 00:41:00;;;;;;;39.97;20.00;;;-7.70;1.00;;;;;;5048649;28;20718;-60
2022/12/15 00:43:29;;;;;;;32.80;19.00;;;-7.70;1.00;;;;;;5047592;28;20237;-58
2022/12/15 00:48:42;;;;;;;31.30;18.53;;;-7.50;1.00;;;;;;5043670;28;20326;-60
2022/12/15 00:51:10;;;;;;;38.80;20.23;;;-7.50;1.00;;;;;;5034866;28;20695;-59
2022/12/15 01:21:21;;;;;;;32.87;18.30;;;-7.50;1.00;;;;;;5045288;28;20245;-62
2022/12/15 01:23:51;;;;;;;30.40;18.37;;;-7.60;1.00;;;;;;5040000;28;20570;-59
2022/12/15 01:26:18;;;;;;;29.20;17.67;;;-7.70;1.00;;;;;;5039294;28;20195;-62
2022/12/15 01:28:45;;;;;;;35.20;17.40;;;-7.70;1.00;;;;;;5053391;28;20204;-63
2022/12/15 01:31:13;;;;;;;29.60;17.57;;;-7.70;1.00;;;;;;5043606;28;20257;-61
2022/12/15 01:33:42;;;;;;;30.33;18.07;;;-7.70;1.00;;;;;;5041688;28;20522;-58
2022/12/15 01:36:10;;;;;;;31.20;18.07;;;-7.70;1.00;;;;;;5044063;28;20211;-62
2022/12/15 01:38:37;;;;;;;40.73;19.23;;;-7.60;1.00;;;;;;5039341;28;20245;-62
2022/12/15 01:41:08;;;;;;;29.30;16.80;;;-7.50;1.00;;;;;;5037821;28;20196;-59
2022/12/15 01:43:38;;;;;;;31.83;18.37;;;-7.60;1.00;;;;;;5055434;28;20231;-59
2022/12/15 01:46:17;;;;;;;33.80;19.40;;;-7.60;1.00;;;;;;5039461;28;21790;-64
2022/12/15 01:48:57;;;;;;;31.73;18.30;;;-7.40;1.00;;;;;;5045435;28;20207;-59
2022/12/15 01:51:25;;;;;;;39.23;20.50;;;-7.30;1.00;;;;;;5058587;28;20199;-60
2022/12/15 01:53:56;;;;;;;36.00;18.70;;;-7.10;1.00;;;;;;5053165;28;20293;-60
2022/12/15 01:56:25;;;;;;;36.00;19.00;;;-7.20;1.00;;;;;;5053516;28;20191;-59
2022/12/15 01:58:56;;;;;;;33.33;18.67;;;-7.30;1.00;;;;;;5047136;28;20696;-59
2022/12/15 02:01:23;;;;;;;36.50;19.40;;;-7.50;1.00;;;;;;5041398;28;20191;-63
2022/12/15 02:03:50;;;;;;;31.57;19.60;;;-7.50;1.00;;;;;;5040687;23;20263;-60
2022/12/15 02:06:21;;;;;;;32.00;18.00;;;-7.50;1.00;;;;;;5012420;28;20223;-60
2022/12/15 02:08:51;;;;;;;34.27;18.17;;;-7.50;1.00;;;;;;5031660;28;20200;-57
2022/12/15 02:11:44;;;;;;;31.03;18.17;;;-7.50;1.00;;;;;;5018358;28;20290;-60
2022/12/15 02:14:40;;;;;;;30.20;18.57;;;-7.40;1.00;;;;;;5030133;28;20706;-58
2022/12/15 02:17:30;;;;;;;39.17;18.63;;;-7.50;1.00;;;;;;4987787;28;20210;-60
2022/12/15 02:20:07;;;;;;;38.00;18.77;;;-7.50;1.00;;;;;;5002674;28;20224;-59
2022/12/15 02:22:50;;;;;;;30.53;17.70;;;-7.10;99.90;;;;;;5016989;28;20275;-57
2022/12/15 02:25:41;;;;;;;33.03;18.73;;;-6.70;68.30;;;;;;5030358;28;20217;-57
2022/12/15 02:28:30;;;;;;;34.97;18.93;;;-6.40;46.40;;;;;;5034831;28;20193;-58
2022/12/15 02:34:05;;;;;;;32.43;18.80;;;-5.80;1.00;;;;;;5035770;28;20608;-58
2022/12/15 02:36:36;;;;;;;36.80;19.73;;;-5.60;1.00;;;;;;4997925;28;20743;-57
2022/12/15 02:39:04;;;;;;;36.70;18.07;;;-5.50;1.00;;;;;;5032999;28;20286;-59
2022/12/15 02:41:41;;;;;;;35.63;19.87;;;-5.50;1.00;;;;;;5033159;28;20577;-59
2022/12/15 02:44:11;;;;;;;37.87;21.53;;;-5.50;1.00;;;;;;5029380;28;20605;-62
2022/12/15 02:47:05;;;;;;;33.90;19.57;;;-5.40;1.00;;;;;;5014998;28;20646;-59
2022/12/15 02:49:59;;;;;;;29.87;19.13;;;-5.20;1.00;;;;;;5032298;28;20251;-56
2022/12/15 02:52:44;;;;;;;37.13;21.20;;;-5.00;1.00;;;;;;5032220;28;20334;-58
2022/12/15 02:55:39;;;;;;;37.90;20.63;;;-4.90;1.00;;;;;;5000261;28;20188;-59
2022/12/15 02:58:18;;;;;;;35.60;20.40;;;-4.80;1.00;;;;;;5017600;28;20206;-59
2022/12/15 03:00:58;;;;;;;32.43;19.43;;;-4.80;1.00;;;;;;5000382;28;20196;-59
2022/12/15 03:03:27;;;;;;;35.60;18.63;;;-4.90;1.00;;;;;;5014489;28;20358;-59
2022/12/15 03:05:56;;;;;;;32.63;20.10;;;-5.00;1.00;;;;;;4998340;28;20208;-56
2022/12/15 03:08:23;;;;;;;38.67;19.23;;;-5.10;1.00;;;;;;5030036;28;20310;-58
2022/12/15 03:10:53;;;;;;;31.00;18.47;;;-5.20;1.00;;;;;;4981732;28;20275;-57
2022/12/15 03:13:21;;;;;;;36.80;17.60;;;-5.30;1.00;;;;;;4990594;28;20191;-57
2022/12/15 03:15:49;;;;;;;29.57;19.03;;;-5.30;1.00;;;;;;4998574;28;20286;-59
2022/12/15 03:18:16;;;;;;;31.80;18.47;;;-5.30;1.00;;;;;;5036022;28;20192;-58
2022/12/15 03:20:43;;;;;;;33.43;19.60;;;-5.30;1.00;;;;;;5033839;28;20287;-61
2022/12/15 03:23:10;;;;;;;33.43;18.60;;;-5.40;1.00;;;;;;5037967;28;20196;-58
2022/12/15 03:25:36;;;;;;;34.67;20.17;;;-5.50;1.00;;;;;;5001125;28;20199;-57
2022/12/15 03:28:03;;;;;;;31.63;18.27;;;-5.40;1.00;;;;;;5004788;28;20184;-57
2022/12/15 03:30:30;;;;;;;32.23;18.17;;;-5.30;1.00;;;;;;5031230;28;20813;-57
2022/12/15 03:32:57;;;;;;;34.60;19.90;;;-5.30;1.00;;;;;;5029071;28;20215;-58
2022/12/15 03:35:24;;;;;;;30.37;17.77;;;-5.30;1.00;;;;;;5037052;28;20192;-58
2022/12/15 03:37:51;;;;;;;34.00;18.50;;;-5.40;1.00;;;;;;5035951;28;20278;-59
2022/12/15 03:40:18;;;;;;;32.33;19.70;;;-5.20;1.00;;;;;;5033992;28;20574;-60
2022/12/15 03:42:48;;;;;;;33.77;19.10;;;-5.10;1.00;;;;;;5010645;28;20329;-58
2022/12/15 03:45:23;;;;;;;32.60;20.03;;;-5.10;1.00;;;;;;5001496;28;20198;-59
2022/12/15 03:47:51;;;;;;;36.03;19.43;;;-5.10;1.00;;;;;;5038926;28;20282;-57
2022/12/15 03:50:24;;;;;;;31.20;18.30;;;-5.10;1.00;;;;;;5034372;28;20290;-57
2022/12/15 03:52:54;;;;;;;38.40;19.20;;;-5.10;1.00;;;;;;5002592;28;20291;-57
2022/12/15 03:55:21;;;;;;;34.23;19.93;;;-5.10;1.00;;;;;;5018766;28;20451;-56
2022/12/15 03:57:48;;;;;;;37.07;19.83;;;-5.10;1.00;;;;;;5021060;28;20197;-62
2022/12/15 04:00:17;;;;;;;35.87;20.73;;;-5.10;1.00;;;;;;5031248;28;20605;-57
2022/12/15 04:02:45;;;;;;;32.40;19.50;;;-5.10;1.00;;;;;;5034401;28;20224;-60
2022/12/15 04:05:30;;;;;;;34.03;18.83;;;-5.10;1.00;;;;;;5018453;28;20258;-60
2022/12/15 04:07:59;;;;;;;35.50;19.57;;;-5.20;1.00;;;;;;5034419;28;20272;-60
2022/12/15 04:10:29;;;;;;;33.00;18.80;;;-5.20;1.00;;;;;;5034350;28;20203;-58
2022/12/15 04:13:06;;;;;;;35.40;19.10;;;-5.20;1.00;;;;;;5007372;28;20187;-61
2022/12/15 04:15:35;;;;;;;32.50;18.43;;;-5.20;1.00;;;;;;5018259;28;20246;-60
2022/12/15 04:18:06;;;;;;;30.13;19.07;;;-5.20;1.00;;;;;;5037231;28;20282;-59
2022/12/15 04:20:33;;;;;;;34.70;20.70;;;-5.20;1.00;;;;;;5037541;28;20655;-60
2022/12/15 04:23:00;;;;;;;34.23;21.60;;;-5.30;1.00;;;;;;5036580;28;20195;-59
2022/12/15 05:32:08;;;;;;;38.80;19.23;;;-6.00;1.00;;;;;;5032127;28;20311;-58
2022/12/15 05:34:36;;;;;;;41.43;20.93;;;-6.10;1.00;;;;;;5034502;28;20273;-59
2022/12/15 05:37:06;;;;;;;35.77;20.00;;;-6.30;1.00;;;;;;4991161;28;20196;-58
2022/12/15 05:39:33;;;;;;;32.50;18.37;;;-6.50;1.00;;;;;;4990491;28;20219;-58
2022/12/15 05:42:00;;;;;;;36.23;18.93;;;-6.60;1.00;;;;;;5021900;28;20239;-58
2022/12/15 05:44:27;;;;;;;31.80;17.70;;;-6.70;1.00;;;;;;5012120;28;20205;-60
2022/12/15 05:46:54;;;;;;;33.43;18.77;;;-6.80;1.00;;;;;;5031610;28;20355;-61
2022/12/15 05:49:22;;;;;;;32.43;18.37;;;-6.80;1.00;;;;;;5031994;28;20311;-59
2022/12/15 05:51:49;;;;;;;34.07;19.20;;;-6.90;1.00;;;;;;5017243;28;20201;-59
2022/12/15 05:54:18;;;;;;;33.57;19.47;;;-7.00;1.00;;;;;;5001522;28;21253;-57
2022/12/15 05:56:46;;;;;;;35.80;18.00;;;-7.00;1.00;;;;;;5016465;28;20667;-59
2022/12/15 05:59:16;;;;;;;31.10;18.57;;;-7.00;1.00;;;;;;5017712;28;20215;-57
2022/12/15 06:01:43;;;;;;;32.70;18.37;;;-7.10;1.00;;;;;;5016096;28;20298;-57
2022/12/15 06:04:11;;;;;;;33.70;17.70;;;-7.10;1.00;;;;;;5029785;28;20593;-57
2022/12/15 06:06:39;;;;;;;32.93;17.40;;;-7.10;1.00;;;;;;5034497;28;20211;-57
2022/12/15 06:09:07;;;;;;;32.00;18.73;;;-7.00;1.00;;;;;;5029032;28;20273;-57
2022/12/15 06:11:36;;;;;;;34.87;18.70;;;-6.90;1.00;;;;;;5032094;28;20291;-57
2022/12/15 06:14:03;;;;;;;38.73;19.00;;;-6.60;1.00;;;;;;5010286;28;20304;-57
2022/12/15 06:16:31;;;;;;;35.63;18.87;;;-6.40;1.00;;;;;;5035106;28;20192;-58
2022/12/15 06:19:00;;;;;;;35.20;19.60;;;-6.20;1.00;;;;;;5032856;28;20286;-58
2022/12/15 06:21:34;;;;;;;39.37;20.77;;;-6.20;1.00;;;;;;5000105;28;20200;-57
2022/12/15 06:24:06;;;;;;;36.70;19.63;;;-6.20;1.00;;;;;;5002015;28;20294;-64
2022/12/15 06:26:38;;;;;;;39.80;20.50;;;-6.40;1.00;;;;;;4997741;28;20206;-64
2022/12/15 06:29:09;;;;;;;38.50;19.90;;;-6.60;1.00;;;;;;5032427;28;20662;-62
2022/12/15 06:31:36;;;;;;;38.60;21.13;;;-6.70;1.00;;;;;;5003375;28;20223;-64
2022/12/15 06:34:06;;;;;;;37.93;20.37;;;-6.80;1.00;;;;;;5034458;28;20200;-63
2022/12/15 06:36:34;;;;;;;40.43;21.53;;;-6.90;1.00;;;;;;5015997;28;20226;-64
2022/12/15 06:39:03;;;;;;;35.33;19.93;;;-7.10;1.00;;;;;;5031262;28;20180;-64
2022/12/15 06:41:30;;;;;;;36.37;20.73;;;-7.10;1.00;;;;;;5035955;28;20184;-63
2022/12/15 06:43:59;;;;;;;36.07;20.77;;;-7.20;1.00;;;;;;5030171;28;20235;-63
2022/12/15 06:46:28;;;;;;;35.60;19.80;;;-7.30;1.00;;;;;;5010434;28;20282;-64
2022/12/15 06:48:56;;;;;;;41.10;19.57;;;-7.30;1.00;;;;;;5031419;28;20199;-66
2022/12/15 06:51:23;;;;;;;40.40;21.70;;;-7.10;1.00;;;;;;5031036;28;20554;-58
2022/12/15 06:53:54;;;;;;;41.27;21.40;;;-6.80;1.00;;;;;;5032463;28;20191;-56
2022/12/15 06:56:25;;;;;;;37.73;21.17;;;-6.60;1.00;;;;;;5033583;28;20643;-60
2022/12/15 06:59:00;;;;;;;44.47;23.30;;;-6.50;1.00;;;;;;4996535;28;20192;-59
2022/12/15 07:01:28;;;;;;;49.10;32.97;;;-6.40;1.00;;;;;;5031699;28;20195;-59
2022/12/15 07:03:58;;;;;;;40.53;23.20;;;-6.40;1.00;;;;;;5035016;28;20298;-59
2022/12/15 07:06:27;;;;;;;37.30;19.77;;;-6.50;1.00;;;;;;5012151;28;20630;-56
2022/12/15 07:08:55;;;;;;;39.53;20.57;;;-6.70;1.00;;;;;;5029650;28;20278;-58
2022/12/15 07:11:22;;;;;;;40.00;19.77;;;-6.90;1.00;;;;;;5032502;28;20230;-58
2022/12/15 07:13:51;;;;;;;38.93;20.13;;;-7.00;1.00;;;;;;5030246;28;20192;-59
2022/12/15 07:16:19;;;;;;;38.63;20.00;;;-6.90;1.00;;;;;;5032660;28;20188;-59
2022/12/15 07:18:47;;;;;;;36.43;20.07;;;-6.80;1.00;;;;;;5032192;28;20242;-59
2022/12/15 07:21:14;;;;;;;34.13;19.57;;;-6.80;1.00;;;;;;5001580;28;20211;-59
2022/12/15 07:23:41;;;;;;;37.23;18.80;;;-6.80;1.00;;;;;;5011890;28;20192;-59
2022/12/15 07:26:24;;;;;;;32.87;18.00;;;-6.90;1.00;;;;;;5005295;28;20642;-60
2022/12/15 07:28:52;;;;;;;31.57;17.87;;;-7.00;1.00;;;;;;5035264;28;20675;-58
2022/12/15 07:31:20;;;;;;;40.30;18.73;;;-7.10;1.00;;;;;;5026808;28;20358;-59
2022/12/15 07:33:47;;;;;;;40.33;21.23;;;-7.20;1.00;;;;;;5029219;28;20832;-57
2022/12/15 07:36:15;;;;;;;42.93;23.10;;;-7.20;1.00;;;;;;4988785;28;20228;-63
2022/12/15 07:38:44;;;;;;;38.30;21.33;;;-7.20;1.00;;;;;;5031832;28;20214;-63
2022/12/15 07:41:17;;;;;;;37.33;20.43;;;-7.20;1.00;;;;;;5032595;28;20199;-64
2022/12/15 07:43:45;;;;;;;35.50;19.73;;;-7.20;1.00;;;;;;5029353;28;20194;-64
2022/12/15 07:46:12;;;;;;;38.73;19.53;;;-7.20;1.00;;;;;;5030042;28;20670;-63
2022/12/15 07:48:40;;;;;;;39.80;19.93;;;-7.20;1.00;;;;;;5032501;28;20195;-60
2022/12/15 07:51:07;;;;;;;37.00;19.23;;;-7.00;1.00;;;;;;4996672;28;20306;-64
2022/12/15 07:53:45;;;;;;;46.43;19.13;;;-7.00;1.00;;;;;;5009388;28;20211;-63
2022/12/15 07:56:12;;;;;;;32.60;19.17;;;-7.00;1.00;;;;;;5016857;28;20238;-60
2022/12/15 07:58:40;;;;;;;30.57;17.93;;;-7.00;1.00;;;;;;5030266;28;20209;-62
2022/12/15 08:01:11;;;;;;;38.37;19.77;;;-7.10;1.00;;;;;;5021578;28;20695;-65
2022/12/15 08:03:38;;;;;;;39.73;21.43;;;-7.00;1.00;;;;;;5021699;28;20762;-64
2022/12/15 08:06:11;;;;;;;36.00;20.23;;;-6.90;1.00;;;;;;5032775;28;20194;-58
2022/12/15 08:08:39;;;;;;;38.60;23.03;;;-6.90;1.00;;;;;;5016287;28;20187;-56
2022/12/15 08:11:08;;;;;;;36.60;20.03;;;-6.80;1.00;;;;;;5022666;28;20201;-63
2022/12/15 08:13:36;;;;;;;36.37;19.17;;;-6.70;1.00;;;;;;5028298;28;20251;-63
2022/12/15 08:16:23;;;;;;;32.83;18.93;;;-6.70;1.00;;;;;;5029821;28;20520;-63
2022/12/15 08:18:50;;;;;;;37.17;21.47;;;-6.60;1.00;;;;;;5034351;28;20180;-63
2022/12/15 08:21:17;;;;;;;38.00;20.77;;;-6.50;1.00;;;;;;5018560;28;20196;-65
2022/12/15 08:23:44;;;;;;;33.37;19.47;;;-6.50;1.00;;;;;;5032356;28;20274;-55
2022/12/15 08:26:14;;;;;;;32.47;18.70;;;-6.40;1.00;;;;;;5034587;28;20279;-57
2022/12/15 08:28:42;;;;;;;33.30;19.53;;;-6.30;1.00;;;;;;5037249;28;20375;-59
2022/12/15 08:31:12;;;;;;;35.17;19.90;;;-6.30;1.00;;;;;;5032723;28;20216;-63
2022/12/15 08:33:39;;;;;;;33.63;19.13;;;-6.20;1.00;;;;;;5036923;28;20188;-64
2022/12/15 08:36:09;;;;;;;39.73;22.63;;;-6.20;1.00;;;;;;5004037;28;20196;-58
2022/12/15 08:38:38;;;;;;;64.80;40.40;;;-6.00;1.00;;;;;;5036859;28;20279;-55
2022/12/15 08:41:12;;;;;;;45.80;26.43;;;-5.90;1.00;;;;;;5038675;28;20204;-56
2022/12/15 08:43:39;;;;;;;40.33;19.90;;;-5.80;1.00;;;;;;5039060;28;20278;-58
2022/12/15 08:46:22;;;;;;;41.57;19.97;;;-5.70;1.00;;;;;;5039923;28;20645;-59
2022/12/15 08:48:50;;;;;;;40.53;20.93;;;-5.60;1.00;;;;;;5034212;28;20210;-58
2022/12/15 08:51:16;;;;;;;31.97;19.60;;;-5.70;1.00;;;;;;5038361;28;20799;-56
2022/12/15 08:53:44;;;;;;;35.57;19.90;;;-5.60;1.00;;;;;;5039143;28;20417;-55
2022/12/15 08:56:15;;;;;;;36.77;19.00;;;-5.50;1.00;;;;;;5004037;28;20199;-58
2022/12/15 08:58:43;;;;;;;37.00;18.07;;;-5.20;1.00;;;;;;5032583;28;20189;-60
2022/12/15 09:01:21;;;;;;;33.27;19.17;;;-4.90;1.00;;;;;;5035175;28;20258;-58
2022/12/15 09:03:54;;;;;;;34.63;19.40;;;-4.90;1.00;;;;;;5035601;28;20246;-57
2022/12/15 09:06:33;;;;;;;32.03;18.67;;;-4.90;1.00;;;;;;5037340;28;20729;-56
2022/12/15 09:09:04;;;;;;;32.47;18.03;;;-4.80;1.00;;;;;;5037478;28;20205;-56
2022/12/15 09:11:31;;;;;;;35.00;19.43;;;-4.60;1.00;;;;;;5028820;28;20351;-56
2022/12/15 09:13:59;;;;;;;37.63;18.77;;;-4.20;1.00;;;;;;5016145;28;20191;-57
2022/12/15 09:16:26;;;;;;;31.77;18.07;;;-3.80;1.00;;;;;;5034509;28;20195;-57
2022/12/15 09:18:56;;;;;;;30.87;17.33;;;-0.30;1.00;;;;;;5020584;28;20196;-57
2022/12/15 09:21:25;;;;;;;29.30;17.90;;;3.90;1.00;;;;;;5032097;28;20240;-56
2022/12/15 09:23:54;;;;;;;31.00;18.23;;;6.60;1.00;;;;;;5015377;28;20600;-58
2022/12/15 09:26:22;;;;;;;46.73;22.27;;;6.80;1.00;;;;;;4987496;28;20283;-60
2022/12/15 09:28:50;;;;;;;36.83;20.03;;;7.20;1.00;;;;;;5029652;28;20226;-57
2022/12/15 09:31:20;;;;;;;31.27;18.53;;;8.70;1.00;;;;;;5022054;28;20292;-60
2022/12/15 09:33:49;;;;;;;27.37;16.57;;;9.90;1.00;;;;;;5036654;28;20199;-57
2022/12/15 09:36:16;;;;;;;22.57;15.50;;;9.50;1.00;;;;;;5031966;28;20227;-59
2022/12/15 09:38:43;;;;;;;21.63;14.67;;;9.60;1.00;;;;;;5029280;28;20690;-59
2022/12/15 09:41:13;;;;;;;25.83;16.93;;;9.00;1.00;;;;;;5034389;28;20192;-56
2022/12/15 09:43:52;;;;;;;23.87;16.53;;;9.50;1.00;;;;;;5017023;28;20363;-58
2022/12/15 09:46:35;;;;;;;28.07;20.73;;;10.60;1.00;;;;;;4999181;28;20258;-58
2022/12/15 09:49:12;;;;;;;25.50;16.90;;;10.80;1.00;;;;;;5032122;28;20290;-58
2022/12/15 09:51:49;;;;;;;28.87;18.57;;;11.40;1.00;;;;;;5033010;28;20290;-58
2022/12/15 09:54:16;;;;;;;21.27;14.63;;;11.70;1.00;;;;;;5026532;28;20189;-58
2022/12/15 09:56:48;;;;;;;21.07;14.37;;;10.20;1.00;;;;;;5009202;28;20269;-58
2022/12/15 09:59:42;;;;;;;22.57;16.00;;;10.60;1.00;;;;;;5014822;28;20759;-59
2022/12/15 10:02:14;;;;;;;23.33;14.73;;;10.10;1.00;;;;;;5031523;28;20245;-57
2022/12/15 10:05:04;;;;;;;29.30;21.03;;;10.80;1.00;;;;;;4991399;28;1138988;-55
2022/12/15 10:07:40;;;;;;;28.37;17.40;;;10.90;1.00;;;;;;5025808;28;20568;-57
2022/12/15 10:10:37;;;;;;;26.87;21.10;;;12.10;1.00;;;;;;5031183;28;20218;-56
2022/12/15 10:13:13;;;;;;;27.63;21.53;;;11.20;1.00;;;;;;5010971;28;20211;-55
2022/12/15 10:15:50;;;;;;;26.67;20.47;;;11.10;1.00;;;;;;5019096;28;20200;-56
2022/12/15 10:18:22;;;;;;;25.50;17.77;;;11.40;1.00;;;;;;5033139;28;20234;-56
2022/12/15 10:20:53;;;;;;;20.00;15.10;;;11.90;1.00;;;;;;5033526;28;20196;-57
2022/12/15 10:23:20;;;;;;;19.10;15.13;;;11.20;1.00;;;;;;5034405;28;20668;-58
2022/12/15 10:25:50;;;;;;;22.73;15.60;;;11.10;1.00;;;;;;5033204;28;20251;-56
2022/12/15 10:28:58;;;;;;;19.37;13.43;;;10.20;1.00;;;;;;5035016;28;20204;-60
2022/12/15 10:31:34;;;;;;;19.53;13.87;;;11.60;1.00;;;;;;5032846;28;20750;-58
2022/12/15 10:34:10;;;;;;;21.80;16.17;;;11.70;1.00;;;;;;5033552;28;20192;-58
2022/12/15 10:36:43;;;;;;;31.30;21.27;;;11.20;1.00;;;;;;5002441;28;20187;-63
2022/12/15 10:39:10;;;;;;;21.80;15.53;;;10.30;1.00;;;;;;5033718;28;20695;-60
2022/12/15 10:41:42;;;;;;;29.27;17.80;;;10.60;1.00;;;;;;5032628;28;20212;-59
2022/12/15 10:44:24;;;;;;;25.90;17.27;;;10.40;1.00;;;;;;5032389;28;20200;-58
2022/12/15 10:47:07;;;;;;;18.10;12.80;;;11.10;1.00;;;;;;5034740;28;20192;-59
2022/12/15 10:49:34;;;;;;;23.03;15.10;;;11.90;1.00;;;;;;5035875;28;20239;-61
2022/12/15 10:52:01;;;;;;;33.83;22.87;;;10.70;1.00;;;;;;5014643;28;20308;-62
2022/12/15 10:54:35;;;;;;;25.80;19.00;;;10.80;1.00;;;;;;5023023;28;20697;-58
2022/12/15 10:57:30;;;;;;;24.70;15.57;;;11.40;1.00;;;;;;5019503;28;20378;-59
2022/12/15 11:00:12;;;;;;;20.47;14.07;;;12.00;1.00;;;;;;5025701;28;20246;-58
2022/12/15 11:02:40;;;;;;;28.80;18.20;;;12.70;1.00;;;;;;5012916;28;20657;-56
2022/12/15 11:05:16;;;;;;;22.57;15.80;;;12.00;1.00;;;;;;5029569;28;20682;-60
2022/12/15 11:07:47;;;;;;;16.97;13.03;;;12.20;1.00;;;;;;5021916;28;20275;-58
2022/12/15 11:10:25;;;;;;;16.17;11.90;;;11.70;1.00;;;;;;5020792;28;20279;-59
2022/12/15 11:13:15;;;;;;;20.07;12.97;;;11.40;1.00;;;;;;5013726;28;20223;-70
2022/12/15 11:15:47;;;;;;;19.70;13.17;;;11.10;1.00;;;;;;5035230;28;20193;-58
2022/12/15 11:18:36;;;;;;;20.50;12.70;;;11.00;1.00;;;;;;5030114;28;20276;-61
2022/12/15 11:21:23;;;;;;;17.40;11.60;;;10.80;1.00;;;;;;5033082;28;20210;-58
2022/12/15 11:24:12;;;;;;;16.80;12.00;;;12.50;1.00;;;;;;5031648;28;20186;-57
2022/12/15 11:26:57;;;;;;;20.20;14.07;;;14.10;1.00;;;;;;5033486;28;20199;-57
2022/12/15 11:30:06;;;;;;;19.03;12.77;;;14.60;1.00;;;;;;5031804;28;20307;-58
2022/12/15 11:32:36;;;;;;;18.17;11.53;;;14.00;1.00;;;;;;5034638;28;20211;-57
2022/12/15 11:35:05;;;;;;;16.50;12.80;;;13.80;1.00;;;;;;5034332;28;20549;-58
2022/12/15 11:37:57;;;;;;;20.43;13.93;;;13.20;1.00;;;;;;5033581;28;20775;-57
2022/12/15 11:40:38;;;;;;;18.07;12.87;;;13.00;1.00;;;;;;5030220;28;20199;-60
2022/12/15 11:43:17;;;;;;;17.97;13.73;;;12.90;1.00;;;;;;5035421;28;20222;-58
2022/12/15 11:46:08;;;;;;;19.93;13.60;;;12.50;1.00;;;;;;5036161;28;20200;-57
2022/12/15 11:48:47;;;;;;;19.57;12.93;;;12.20;1.00;;;;;;5038885;28;20206;-59
2022/12/15 11:51:39;;;;;;;21.90;12.00;;;11.40;1.00;;;;;;5037232;28;20280;-55
2022/12/15 11:54:28;;;;;;;21.03;13.37;;;11.80;1.00;;;;;;5031577;28;20197;-62
2022/12/15 11:57:19;;;;;;;21.87;12.57;;;11.90;1.00;;;;;;5027013;28;20191;-58
2022/12/15 12:00:22;;;;;;;16.77;12.73;;;12.50;1.00;;;;;;5031982;28;20627;-58
2022/12/15 12:03:11;;;;;;;18.70;15.27;;;12.50;1.00;;;;;;5018949;28;20195;-58
2022/12/15 12:05:47;;;;;;;17.60;13.30;;;12.40;1.00;;;;;;5037183;28;20210;-60
2022/12/15 12:08:36;;;;;;;21.57;14.13;;;11.90;1.00;;;;;;5034285;28;20200;-58
2022/12/15 12:11:43;;;;;;;20.80;13.83;;;11.40;1.00;;;;;;5032594;28;20226;-59
2022/12/15 12:14:26;;;;;;;20.53;12.97;;;11.50;1.00;;;;;;5034686;28;20616;-59
2022/12/15 12:17:05;;;;;;;23.07;12.80;;;11.10;1.00;;;;;;5033020;28;20184;-58
2022/12/15 12:19:55;;;;;;;21.40;12.87;;;11.30;1.00;;;;;;4996320;28;20282;-58
2022/12/15 12:22:30;;;;;;;20.90;13.80;;;11.90;1.00;;;;;;5004421;28;20214;-59
2022/12/15 12:25:05;;;;;;;20.57;13.00;;;12.10;1.00;;;;;;4999074;28;20668;-60
2022/12/15 12:27:48;;;;;;;17.40;12.87;;;11.90;1.00;;;;;;5032639;28;20281;-60
2022/12/15 12:30:22;;;;;;;19.67;13.43;;;11.00;1.00;;;;;;5033169;28;20192;-59
2022/12/15 12:33:11;;;;;;;23.03;14.67;;;9.70;1.00;;;;;;5017464;28;20744;-57
2022/12/15 12:35:41;;;;;;;27.07;18.03;;;9.60;1.00;;;;;;5031811;28;20227;-59
2022/12/15 12:38:11;;;;;;;23.07;15.50;;;9.20;1.00;;;;;;5033949;28;20185;-56
2022/12/15 12:40:40;;;;;;;21.13;14.67;;;8.70;1.00;;;;;;5020938;28;20674;-59
2022/12/15 12:43:11;;;;;;;23.77;19.00;;;8.60;1.00;;;;;;5033881;28;20626;-58
2022/12/15 12:45:43;;;;;;;23.40;14.53;;;8.00;1.00;;;;;;5033822;28;20561;-58
2022/12/15 12:48:24;;;;;;;19.10;14.03;;;8.00;1.00;;;;;;5035881;28;20196;-60
2022/12/15 12:51:07;;;;;;;22.07;13.50;;;8.10;1.00;;;;;;5034701;28;20714;-59
2022/12/15 12:53:33;;;;;;;18.47;12.17;;;8.50;1.00;;;;;;5034940;28;20338;-60
2022/12/15 12:56:01;;;;;;;17.77;12.63;;;8.80;1.00;;;;;;5003853;28;20199;-59
2022/12/15 12:58:33;;;;;;;19.00;13.23;;;8.70;1.00;;;;;;5018174;28;20221;-59
2022/12/15 13:01:09;;;;;;;19.87;13.27;;;8.80;1.00;;;;;;5017864;28;20298;-58
2022/12/15 13:03:41;;;;;;;21.27;13.67;;;8.50;1.00;;;;;;4999802;28;20243;-59
2022/12/15 13:06:33;;;;;;;21.63;13.30;;;8.10;1.00;;;;;;5035236;28;20291;-57
2022/12/15 13:09:21;;;;;;;21.03;13.20;;;7.70;1.00;;;;;;5003451;28;20246;-58
2022/12/15 13:11:51;;;;;;;18.97;12.77;;;7.50;1.00;;;;;;5034735;28;20214;-57
2022/12/15 13:14:25;;;;;;;18.63;12.70;;;7.00;1.00;;;;;;5003337;28;20192;-59
2022/12/15 13:17:20;;;;;;;21.70;13.03;;;6.70;1.00;;;;;;5034713;28;20266;-58
2022/12/15 13:19:56;;;;;;;17.93;13.10;;;6.60;1.00;;;;;;5034866;28;20183;-58
2022/12/15 13:22:40;;;;;;;19.80;14.03;;;5.80;1.00;;;;;;5031872;28;20202;-59
2022/12/15 13:25:26;;;;;;;23.50;15.00;;;5.50;1.00;;;;;;5036201;28;20203;-58
2022/12/15 13:28:14;;;;;;;23.23;14.10;;;5.10;1.00;;;;;;5034088;28;20749;-56
2022/12/15 13:31:19;;;;;;;24.63;15.07;;;4.60;1.00;;;;;;5004031;28;20612;-56
2022/12/15 13:33:49;;;;;;;22.77;15.50;;;3.80;1.00;;;;;;5023175;28;20877;-57
2022/12/15 13:40:33;;;;;;;23.00;15.03;;;3.50;1.00;;;;;;5031019;28;20179;-58
2022/12/15 13:43:04;;;;;;;22.23;14.50;;;3.50;1.00;;;;;;5030391;28;20594;-59
2022/12/15 13:45:53;;;;;;;21.67;14.03;;;3.30;1.00;;;;;;5033740;28;20651;-58
2022/12/15 13:48:34;;;;;;;20.23;14.20;;;3.10;1.00;;;;;;5037290;28;20222;-57
2022/12/15 13:51:16;;;;;;;23.30;14.17;;;3.10;1.00;;;;;;5037365;28;20742;-59
2022/12/15 13:53:51;;;;;;;22.30;14.87;;;3.00;1.00;;;;;;5033366;28;20570;-58
2022/12/15 13:56:47;;;;;;;22.80;14.97;;;2.80;1.00;;;;;;5000120;28;20226;-61
2022/12/15 13:59:35;;;;;;;22.23;14.37;;;2.70;1.00;;;;;;5011369;28;20201;-60
2022/12/15 14:02:01;;;;;;;28.70;14.73;;;2.60;1.00;;;;;;5029992;28;20218;-60
2022/12/15 14:04:28;;;;;;;28.10;15.73;;;2.40;1.00;;;;;;5029811;28;20240;-59
2022/12/15 14:06:59;;;;;;;24.93;15.43;;;2.30;1.00;;;;;;5031911;28;20219;-60
2022/12/15 14:09:36;;;;;;;24.70;14.73;;;2.20;1.00;;;;;;5006306;28;20207;-61
2022/12/15 14:12:11;;;;;;;27.60;17.97;;;2.10;1.00;;;;;;5015359;28;20298;-60
2022/12/15 14:14:45;;;;;;;26.20;16.43;;;1.90;1.00;;;;;;5031098;28;20284;-60
2022/12/15 14:17:16;;;;;;;23.40;16.53;;;1.80;1.00;;;;;;5010518;28;20246;-60
2022/12/15 14:19:45;;;;;;;25.97;15.70;;;1.80;1.00;;;;;;5035185;28;20294;-60
2022/12/15 14:22:23;;;;;;;24.93;15.83;;;1.70;1.00;;;;;;5032116;28;20219;-61
2022/12/15 14:25:12;;;;;;;23.43;15.70;;;1.60;1.00;;;;;;5033153;28;20223;-58
2022/12/15 14:27:39;;;;;;;23.93;15.70;;;1.50;1.00;;;;;;5036007;28;20222;-57
2022/12/15 14:30:15;;;;;;;24.40;16.20;;;1.40;1.00;;;;;;5037219;28;20226;-57
2022/12/15 14:32:43;;;;;;;26.43;16.20;;;1.30;1.00;;;;;;4986586;28;20225;-60
2022/12/15 14:35:14;;;;;;;25.77;15.83;;;1.30;1.00;;;;;;5035853;28;20676;-59
2022/12/15 14:37:42;;;;;;;28.83;17.13;;;1.20;1.00;;;;;;5035697;28;20601;-59
2022/12/15 14:40:15;;;;;;;24.23;16.23;;;1.20;1.00;;;;;;5033739;28;20199;-60
2022/12/15 14:42:43;;;;;;;24.47;16.20;;;1.10;1.00;;;;;;5032502;28;20199;-60
2022/12/15 14:45:24;;;;;;;35.77;20.43;;;1.00;1.00;;;;;;5036394;28;20191;-58
2022/12/15 14:47:55;;;;;;;31.17;17.50;;;0.90;1.00;;;;;;5017737;28;20588;-61
2022/12/15 14:50:46;;;;;;;31.80;18.57;;;0.80;1.00;;;;;;5007305;28;20199;-61
2022/12/15 14:53:16;;;;;;;28.47;18.07;;;0.70;1.00;;;;;;5034882;28;20203;-60
2022/12/15 14:55:43;;;;;;;30.50;17.83;;;0.60;1.00;;;;;;5014948;28;20249;-60
2022/12/15 14:58:31;;;;;;;29.90;19.23;;;0.50;1.00;;;;;;5035873;28;20183;-63
2022/12/15 15:01:00;;;;;;;36.33;22.03;;;0.40;1.00;;;;;;5002073;28;20255;-59
2022/12/15 15:03:33;;;;;;;32.53;20.70;;;0.30;1.00;;;;;;5029548;28;20384;-60
2022/12/15 15:06:09;;;;;;;29.10;19.87;;;0.20;1.00;;;;;;5034671;28;20286;-59
2022/12/15 15:08:47;;;;;;;26.83;16.93;;;0.10;1.00;;;;;;5030343;28;20304;-60
2022/12/15 15:11:50;;;;;;;26.53;16.70;;;0.00;1.00;;;;;;5031169;28;20195;-60
2022/12/15 15:14:25;;;;;;;27.07;17.43;;;-0.10;1.00;;;;;;4994576;28;20203;-61
2022/12/15 15:17:03;;;;;;;30.17;18.00;;;-0.20;1.00;;;;;;5024097;28;20196;-59
2022/12/15 15:19:31;;;;;;;32.70;20.13;;;-0.30;1.00;;;;;;5022948;28;20319;-60
2022/12/15 15:22:05;;;;;;;39.07;23.90;;;-0.30;1.00;;;;;;5012506;28;20194;-60
2022/12/15 15:24:36;;;;;;;44.50;26.97;;;-0.40;1.00;;;;;;5023099;28;20196;-60
2022/12/15 15:27:24;;;;;;;79.60;36.97;;;-0.40;1.00;;;;;;5030794;28;20195;-61
2022/12/15 15:30:04;;;;;;;58.30;29.17;;;-0.40;1.00;;;;;;5035410;28;20659;-59
2022/12/15 15:32:31;;;;;;;42.13;23.03;;;-0.40;1.00;;;;;;4997350;28;20310;-60
2022/12/15 15:34:58;;;;;;;53.50;26.67;;;-0.60;1.00;;;;;;5032539;28;20352;-60
2022/12/15 15:37:25;;;;;;;47.40;27.00;;;-0.70;1.00;;;;;;5034035;28;20652;-67